sensor_id;sensor_type;location;lat;lon;timestamp;pressure;altitude;pressure_sealevel;temperature;humidity
36630;BME280;36256;42.154;23.002;2023-06-19T00:01:59;97260.47;;;17.86;100.00
36630;BME280;36256;42.154;23.002;2023-06-19T00:04:25;97252.44;;;17.85;100.00
36630;BME280;36256;42.154;23.002;2023-06-19T00:06:53;97261.41;;;17.78;100.00
36630;BME280;36256;42.154;23.002;2023-06-19T00:09:20;97258.34;;;17.81;100.00
36630;BME280;36256;42.154;23.002;2023-06-19T00:11:47;97261.97;;;17.82;100.00
36630;BME280;36256;42.154;23.002;2023-06-19T00:14:14;97260.75;;;17.88;100.00
36630;BME280;36256;42.154;23.002;2023-06-19T00:16:40;97260.81;;;17.99;100.00
36630;BME280;36256;42.154;23.002;2023-06-19T00:19:08;97252.53;;;17.96;100.00
36630;BME280;36256;42.154;23.002;2023-06-19T00:21:35;97256.38;;;17.93;100.00
36630;BME280;36256;42.154;23.002;2023-06-19T00:24:02;97257.94;;;17.94;100.00
36630;BME280;36256;42.154;23.002;2023-06-19T00:26:29;97256.94;;;17.97;100.00
36630;BME280;36256;42.154;23.002;2023-06-19T00:28:56;97254.09;;;17.97;100.00
36630;BME280;36256;42.154;23.002;2023-06-19T00:31:22;97252.78;;;17.98;100.00
36630;BME280;36256;42.154;23.002;2023-06-19T00:33:50;97252.56;;;18.01;100.00
36630;BME280;36256;42.154;23.002;2023-06-19T00:36:17;97245.38;;;18.06;100.00
36630;BME280;36256;42.154;23.002;2023-06-19T00:38:47;97244.09;;;18.07;100.00
36630;BME280;36256;42.154;23.002;2023-06-19T00:41:18;97241.50;;;18.03;100.00
36630;BME280;36256;42.154;23.002;2023-06-19T00:43:44;97244.00;;;17.96;100.00
36630;BME280;36256;42.154;23.002;2023-06-19T00:46:12;97242.91;;;17.88;100.00
36630;BME280;36256;42.154;23.002;2023-06-19T00:48:39;97247.13;;;17.98;100.00
36630;BME280;36256;42.154;23.002;2023-06-19T00:51:06;97242.22;;;17.98;100.00
36630;BME280;36256;42.154;23.002;2023-06-19T00:53:33;97238.31;;;17.96;100.00
36630;BME280;36256;42.154;23.002;2023-06-19T00:56:01;97242.47;;;17.95;100.00
36630;BME280;36256;42.154;23.002;2023-06-19T00:58:30;97242.47;;;17.95;100.00
36630;BME280;36256;42.154;23.002;2023-06-19T01:00:57;97234.66;;;17.84;100.00
36630;BME280;36256;42.154;23.002;2023-06-19T01:03:34;97241.81;;;17.80;100.00
36630;BME280;36256;42.154;23.002;2023-06-19T01:06:07;97235.34;;;17.74;100.00
36630;BME280;36256;42.154;23.002;2023-06-19T01:11:05;97234.81;;;17.75;100.00
36630;BME280;36256;42.154;23.002;2023-06-19T01:13:55;97236.06;;;17.69;100.00
36630;BME280;36256;42.154;23.002;2023-06-19T01:16:25;97228.25;;;17.64;100.00
36630;BME280;36256;42.154;23.002;2023-06-19T01:18:52;97237.53;;;17.59;100.00
36630;BME280;36256;42.154;23.002;2023-06-19T01:21:19;97229.72;;;17.54;100.00
36630;BME280;36256;42.154;23.002;2023-06-19T01:23:46;97229.72;;;17.54;100.00
36630;BME280;36256;42.154;23.002;2023-06-19T01:26:15;97227.91;;;17.51;100.00
36630;BME280;36256;42.154;23.002;2023-06-19T01:28:44;97231.38;;;17.40;100.00
36630;BME280;36256;42.154;23.002;2023-06-19T01:31:15;97223.38;;;17.39;100.00
36630;BME280;36256;42.154;23.002;2023-06-19T01:33:44;97230.06;;;17.36;100.00
36630;BME280;36256;42.154;23.002;2023-06-19T01:36:12;97230.66;;;17.19;100.00
36630;BME280;36256;42.154;23.002;2023-06-19T01:38:43;97231.94;;;17.18;100.00
36630;BME280;36256;42.154;23.002;2023-06-19T01:41:11;97235.56;;;17.19;100.00
36630;BME280;36256;42.154;23.002;2023-06-19T01:43:38;97242.34;;;17.27;100.00
36630;BME280;36256;42.154;23.002;2023-06-19T01:46:06;97231.31;;;17.35;100.00
36630;BME280;36256;42.154;23.002;2023-06-19T01:48:34;97246.28;;;17.35;100.00
36630;BME280;36256;42.154;23.002;2023-06-19T01:51:01;97240.34;;;17.33;100.00
36630;BME280;36256;42.154;23.002;2023-06-19T01:53:32;97249.06;;;17.30;100.00
36630;BME280;36256;42.154;23.002;2023-06-19T01:55:59;97241.28;;;17.24;100.00
36630;BME280;36256;42.154;23.002;2023-06-19T01:58:26;97244.06;;;17.19;100.00
36630;BME280;36256;42.154;23.002;2023-06-19T02:00:53;97242.72;;;17.14;100.00
36630;BME280;36256;42.154;23.002;2023-06-19T02:03:20;97237.63;;;17.18;100.00
36630;BME280;36256;42.154;23.002;2023-06-19T02:05:47;97239.91;;;17.14;100.00
36630;BME280;36256;42.154;23.002;2023-06-19T02:08:14;97251.72;;;17.13;100.00
36630;BME280;36256;42.154;23.002;2023-06-19T02:10:40;97245.44;;;17.03;100.00
36630;BME280;36256;42.154;23.002;2023-06-19T02:13:07;97259.59;;;17.03;100.00
36630;BME280;36256;42.154;23.002;2023-06-19T02:15:34;97261.75;;;17.08;100.00
36630;BME280;36256;42.154;23.002;2023-06-19T02:18:02;97261.75;;;17.08;100.00
36630;BME280;36256;42.154;23.002;2023-06-19T02:20:29;97265.28;;;17.03;100.00
36630;BME280;36256;42.154;23.002;2023-06-19T02:22:55;97260.16;;;17.07;100.00
36630;BME280;36256;42.154;23.002;2023-06-19T02:25:22;97263.59;;;16.91;100.00
36630;BME280;36256;42.154;23.002;2023-06-19T02:27:49;97265.13;;;16.92;100.00
36630;BME280;36256;42.154;23.002;2023-06-19T02:30:16;97267.69;;;16.90;100.00
36630;BME280;36256;42.154;23.002;2023-06-19T02:32:42;97270.81;;;16.92;100.00
36630;BME280;36256;42.154;23.002;2023-06-19T02:35:10;97273.78;;;16.83;100.00
36630;BME280;36256;42.154;23.002;2023-06-19T02:37:38;97274.22;;;16.76;100.00
36630;BME280;36256;42.154;23.002;2023-06-19T02:40:05;97278.31;;;16.75;100.00
36630;BME280;36256;42.154;23.002;2023-06-19T02:42:32;97283.44;;;16.71;100.00
36630;BME280;36256;42.154;23.002;2023-06-19T02:44:59;97271.91;;;16.75;100.00
36630;BME280;36256;42.154;23.002;2023-06-19T02:47:30;97279.97;;;16.62;100.00
36630;BME280;36256;42.154;23.002;2023-06-19T02:49:58;97278.59;;;16.57;100.00
36630;BME280;36256;42.154;23.002;2023-06-19T02:52:26;97283.28;;;16.60;100.00
36630;BME280;36256;42.154;23.002;2023-06-19T02:54:53;97279.97;;;16.62;100.00
36630;BME280;36256;42.154;23.002;2023-06-19T02:57:20;97284.28;;;16.57;100.00
36630;BME280;36256;42.154;23.002;2023-06-19T02:59:46;97290.16;;;16.54;100.00
36630;BME280;36256;42.154;23.002;2023-06-19T03:02:13;97278.41;;;16.46;100.00
36630;BME280;36256;42.154;23.002;2023-06-19T03:04:40;97287.00;;;16.52;100.00
36630;BME280;36256;42.154;23.002;2023-06-19T03:07:07;97284.28;;;16.57;100.00
36630;BME280;36256;42.154;23.002;2023-06-19T03:09:34;97291.13;;;16.51;100.00
36630;BME280;36256;42.154;23.002;2023-06-19T03:12:00;97286.25;;;16.51;100.00
36630;BME280;36256;42.154;23.002;2023-06-19T03:14:27;97298.94;;;16.56;100.00
36630;BME280;36256;42.154;23.002;2023-06-19T03:16:54;97288.38;;;16.56;100.00
36630;BME280;36256;42.154;23.002;2023-06-19T03:19:21;97294.03;;;16.56;100.00
36630;BME280;36256;42.154;23.002;2023-06-19T03:21:47;97296.59;;;16.54;100.00
36630;BME280;36256;42.154;23.002;2023-06-19T03:24:14;97292.88;;;16.48;100.00
36630;BME280;36256;42.154;23.002;2023-06-19T03:26:41;97286.84;;;16.40;100.00
36630;BME280;36256;42.154;23.002;2023-06-19T03:29:08;97289.56;;;16.49;100.00
36630;BME280;36256;42.154;23.002;2023-06-19T03:31:34;97298.84;;;16.50;100.00
36630;BME280;36256;42.154;23.002;2023-06-19T03:34:01;97296.00;;;16.50;100.00
36630;BME280;36256;42.154;23.002;2023-06-19T03:36:27;97293.97;;;16.51;100.00
36630;BME280;36256;42.154;23.002;2023-06-19T03:38:54;97309.47;;;16.55;100.00
36630;BME280;36256;42.154;23.002;2023-06-19T03:41:22;97302.06;;;16.58;100.00
36630;BME280;36256;42.154;23.002;2023-06-19T03:43:48;97311.59;;;16.60;100.00
36630;BME280;36256;42.154;23.002;2023-06-19T03:46:15;97309.56;;;16.61;100.00
36630;BME280;36256;42.154;23.002;2023-06-19T03:48:42;97308.75;;;16.60;100.00
36630;BME280;36256;42.154;23.002;2023-06-19T03:51:09;97307.44;;;16.56;100.00
36630;BME280;36256;42.154;23.002;2023-06-19T03:53:35;97304.59;;;16.56;100.00
36630;BME280;36256;42.154;23.002;2023-06-19T03:56:02;97308.13;;;16.51;100.00
36630;BME280;36256;42.154;23.002;2023-06-19T03:58:29;97309.84;;;16.48;100.00
36630;BME280;36256;42.154;23.002;2023-06-19T04:00:56;97311.84;;;16.42;100.00
36630;BME280;36256;42.154;23.002;2023-06-19T04:03:23;97314.38;;;16.40;100.00
36630;BME280;36256;42.154;23.002;2023-06-19T04:05:50;97311.34;;;16.43;100.00
36630;BME280;36256;42.154;23.002;2023-06-19T04:08:17;97313.00;;;16.50;100.00
36630;BME280;36256;42.154;23.002;2023-06-19T04:10:43;97293.47;;;16.37;100.00
36630;BME280;36256;42.154;23.002;2023-06-19T04:13:10;97315.44;;;16.57;100.00
36630;BME280;36256;42.154;23.002;2023-06-19T04:15:37;97310.06;;;16.59;100.00
36630;BME280;36256;42.154;23.002;2023-06-19T04:18:04;97314.72;;;16.62;100.00
36630;BME280;36256;42.154;23.002;2023-06-19T04:20:31;97317.94;;;16.70;100.00
36630;BME280;36256;42.154;23.002;2023-06-19T04:22:57;97313.81;;;16.71;100.00
36630;BME280;36256;42.154;23.002;2023-06-19T04:25:24;97311.75;;;16.71;100.00
36630;BME280;36256;42.154;23.002;2023-06-19T04:27:51;97311.47;;;16.69;100.00
36630;BME280;36256;42.154;23.002;2023-06-19T04:30:18;97315.88;;;16.70;100.00
36630;BME280;36256;42.154;23.002;2023-06-19T04:32:48;97307.78;;;16.83;100.00
36630;BME280;36256;42.154;23.002;2023-06-19T04:35:15;97310.50;;;16.92;100.00
36630;BME280;36256;42.154;23.002;2023-06-19T04:37:45;97296.03;;;16.90;100.00
36630;BME280;36256;42.154;23.002;2023-06-19T04:40:11;97306.97;;;16.97;100.00
36630;BME280;36256;42.154;23.002;2023-06-19T04:42:38;97314.16;;;16.98;100.00
36630;BME280;36256;42.154;23.002;2023-06-19T04:45:05;97311.34;;;16.98;100.00
36630;BME280;36256;42.154;23.002;2023-06-19T04:47:33;97307.09;;;17.08;100.00
36630;BME280;36256;42.154;23.002;2023-06-19T04:50:18;97316.16;;;17.12;100.00
36630;BME280;36256;42.154;23.002;2023-06-19T04:52:45;97316.09;;;17.07;100.00
36630;BME280;36256;42.154;23.002;2023-06-19T04:55:11;97311.06;;;16.96;100.00
36630;BME280;36256;42.154;23.002;2023-06-19T04:57:38;97316.59;;;17.05;100.00
36630;BME280;36256;42.154;23.002;2023-06-19T05:00:05;97316.72;;;17.16;100.00
36630;BME280;36256;42.154;23.002;2023-06-19T05:02:33;97310.78;;;17.14;100.00
36630;BME280;36256;42.154;23.002;2023-06-19T05:05:00;97314.97;;;17.19;100.00
36630;BME280;36256;42.154;23.002;2023-06-19T05:07:30;97311.47;;;17.30;100.00
36630;BME280;36256;42.154;23.002;2023-06-19T05:09:59;97312.03;;;17.34;100.00
36630;BME280;36256;42.154;23.002;2023-06-19T05:12:26;97317.53;;;17.43;100.00
36630;BME280;36256;42.154;23.002;2023-06-19T05:14:53;97315.63;;;17.54;100.00
36630;BME280;36256;42.154;23.002;2023-06-19T05:17:20;97315.34;;;17.52;100.00
36630;BME280;36256;42.154;23.002;2023-06-19T05:19:47;97315.19;;;17.61;100.00
36630;BME280;36256;42.154;23.002;2023-06-19T05:22:15;97308.84;;;17.72;100.00
36630;BME280;36256;42.154;23.002;2023-06-19T05:24:41;97307.81;;;17.75;100.00
36630;BME280;36256;42.154;23.002;2023-06-19T05:27:08;97306.03;;;17.77;100.00
36630;BME280;36256;42.154;23.002;2023-06-19T05:29:35;97314.00;;;17.73;100.00
36630;BME280;36256;42.154;23.002;2023-06-19T05:32:02;97311.59;;;17.92;100.00
36630;BME280;36256;42.154;23.002;2023-06-19T05:34:29;97313.34;;;18.15;100.00
36630;BME280;36256;42.154;23.002;2023-06-19T05:36:56;97326.88;;;18.31;100.00
36630;BME280;36256;42.154;23.002;2023-06-19T05:39:23;97324.22;;;18.53;100.00
36630;BME280;36256;42.154;23.002;2023-06-19T05:41:49;97321.59;;;18.87;100.00
36630;BME280;36256;42.154;23.002;2023-06-19T05:44:16;97333.88;;;19.15;100.00
36630;BME280;36256;42.154;23.002;2023-06-19T05:46:43;97330.38;;;19.36;100.00
36630;BME280;36256;42.154;23.002;2023-06-19T05:49:10;97329.22;;;20.09;100.00
36630;BME280;36256;42.154;23.002;2023-06-19T05:51:37;97330.69;;;20.99;95.48
36630;BME280;36256;42.154;23.002;2023-06-19T05:54:04;97334.78;;;21.72;93.14
36630;BME280;36256;42.154;23.002;2023-06-19T05:56:31;97332.25;;;22.39;87.03
36630;BME280;36256;42.154;23.002;2023-06-19T05:59:00;97330.69;;;22.97;78.52
36630;BME280;36256;42.154;23.002;2023-06-19T06:01:28;97333.66;;;22.86;77.18
36630;BME280;36256;42.154;23.002;2023-06-19T06:03:56;97341.41;;;23.39;74.50
36630;BME280;36256;42.154;23.002;2023-06-19T06:06:24;97333.34;;;23.94;72.08
36630;BME280;36256;42.154;23.002;2023-06-19T06:08:51;97327.78;;;23.83;71.64
36630;BME280;36256;42.154;23.002;2023-06-19T06:11:18;97323.84;;;24.04;70.55
36630;BME280;36256;42.154;23.002;2023-06-19T06:13:45;97335.06;;;24.02;68.30
36630;BME280;36256;42.154;23.002;2023-06-19T06:16:11;97324.31;;;24.40;68.96
36630;BME280;36256;42.154;23.002;2023-06-19T06:18:38;97327.03;;;24.64;68.72
36630;BME280;36256;42.154;23.002;2023-06-19T06:21:05;97329.53;;;24.86;63.61
36630;BME280;36256;42.154;23.002;2023-06-19T06:23:32;97322.72;;;25.03;65.54
36630;BME280;36256;42.154;23.002;2023-06-19T06:25:59;97326.56;;;25.05;62.55
36630;BME280;36256;42.154;23.002;2023-06-19T06:28:29;97298.63;;;25.06;64.46
36630;BME280;36256;42.154;23.002;2023-06-19T06:30:56;97318.25;;;25.41;61.74
36630;BME280;36256;42.154;23.002;2023-06-19T06:33:23;97328.16;;;25.79;62.43
36630;BME280;36256;42.154;23.002;2023-06-19T06:35:50;97326.69;;;26.32;60.91
36630;BME280;36256;42.154;23.002;2023-06-19T06:38:18;97307.91;;;26.31;59.49
36630;BME280;36256;42.154;23.002;2023-06-19T06:40:45;97323.13;;;26.39;56.91
36630;BME280;36256;42.154;23.002;2023-06-19T06:43:12;97314.97;;;26.72;58.68
36630;BME280;36256;42.154;23.002;2023-06-19T06:45:39;97312.03;;;26.85;57.23
36630;BME280;36256;42.154;23.002;2023-06-19T06:48:08;97305.06;;;26.60;57.85
36630;BME280;36256;42.154;23.002;2023-06-19T06:50:35;97312.88;;;26.52;57.29
36630;BME280;36256;42.154;23.002;2023-06-19T06:53:02;97306.19;;;26.36;57.93
36630;BME280;36256;42.154;23.002;2023-06-19T06:55:29;97304.25;;;26.52;58.60
36630;BME280;36256;42.154;23.002;2023-06-19T06:57:55;97308.38;;;26.64;58.13
36630;BME280;36256;42.154;23.002;2023-06-19T07:00:22;97311.63;;;26.81;58.55
36630;BME280;36256;42.154;23.002;2023-06-19T07:02:49;97314.41;;;27.22;58.22
36630;BME280;36256;42.154;23.002;2023-06-19T07:05:17;97306.53;;;26.94;57.41
36630;BME280;36256;42.154;23.002;2023-06-19T07:07:44;97319.13;;;27.12;60.14
36630;BME280;36256;42.154;23.002;2023-06-19T07:10:10;97325.94;;;27.22;59.84
36630;BME280;36256;42.154;23.002;2023-06-19T07:12:45;97326.91;;;27.24;56.47
36630;BME280;36256;42.154;23.002;2023-06-19T07:15:12;97321.72;;;26.95;57.39
36630;BME280;36256;42.154;23.002;2023-06-19T07:17:39;97313.56;;;27.14;56.13
36630;BME280;36256;42.154;23.002;2023-06-19T07:20:06;97312.75;;;27.06;58.93
36630;BME280;36256;42.154;23.002;2023-06-19T07:22:33;97318.78;;;26.87;60.27
36630;BME280;36256;42.154;23.002;2023-06-19T07:25:00;97307.97;;;26.18;57.47
36630;BME280;36256;42.154;23.002;2023-06-19T07:27:27;97316.97;;;26.35;57.84
36630;BME280;36256;42.154;23.002;2023-06-19T07:29:55;97303.13;;;26.55;61.04
36630;BME280;36256;42.154;23.002;2023-06-19T07:32:22;97307.25;;;26.87;56.54
36630;BME280;36256;42.154;23.002;2023-06-19T07:34:49;97299.03;;;27.19;56.52
36630;BME280;36256;42.154;23.002;2023-06-19T07:37:15;97297.03;;;27.35;56.16
36630;BME280;36256;42.154;23.002;2023-06-19T07:39:49;97282.97;;;27.32;53.89
36630;BME280;36256;42.154;23.002;2023-06-19T07:42:19;97285.81;;;26.96;53.23
36630;BME280;36256;42.154;23.002;2023-06-19T07:44:47;97291.06;;;27.05;54.45
36630;BME280;36256;42.154;23.002;2023-06-19T07:47:15;97295.63;;;27.29;54.16
36630;BME280;36256;42.154;23.002;2023-06-19T07:49:42;97283.84;;;27.19;54.50
36630;BME280;36256;42.154;23.002;2023-06-19T07:52:09;97292.09;;;27.15;52.67
36630;BME280;36256;42.154;23.002;2023-06-19T07:54:36;97294.06;;;26.71;53.63
36630;BME280;36256;42.154;23.002;2023-06-19T07:57:03;97298.22;;;26.63;54.49
36630;BME280;36256;42.154;23.002;2023-06-19T07:59:30;97283.13;;;26.49;51.37
36630;BME280;36256;42.154;23.002;2023-06-19T08:01:56;97288.66;;;26.47;54.59
36630;BME280;36256;42.154;23.002;2023-06-19T08:04:23;97290.13;;;26.40;56.58
36630;BME280;36256;42.154;23.002;2023-06-19T08:06:50;97283.34;;;26.30;53.76
36630;BME280;36256;42.154;23.002;2023-06-19T08:09:17;97285.94;;;26.41;56.82
36630;BME280;36256;42.154;23.002;2023-06-19T08:11:43;97291.69;;;26.41;56.48
36630;BME280;36256;42.154;23.002;2023-06-19T08:14:10;97293.44;;;26.44;56.56
36630;BME280;36256;42.154;23.002;2023-06-19T08:16:37;97294.56;;;26.62;55.73
36630;BME280;36256;42.154;23.002;2023-06-19T08:19:04;97292.06;;;26.87;53.84
36630;BME280;36256;42.154;23.002;2023-06-19T08:21:30;97295.38;;;26.91;54.16
36630;BME280;36256;42.154;23.002;2023-06-19T08:23:57;97294.97;;;26.87;55.83
36630;BME280;36256;42.154;23.002;2023-06-19T08:26:25;97291.13;;;26.84;53.93
36630;BME280;36256;42.154;23.002;2023-06-19T08:28:52;97280.44;;;26.92;54.44
36630;BME280;36256;42.154;23.002;2023-06-19T08:31:18;97279.69;;;26.99;51.91
36630;BME280;36256;42.154;23.002;2023-06-19T08:33:47;97266.38;;;26.89;54.08
36630;BME280;36256;42.154;23.002;2023-06-19T08:36:18;97275.22;;;26.91;53.58
36630;BME280;36256;42.154;23.002;2023-06-19T08:38:45;97278.00;;;26.76;52.83
36630;BME280;36256;42.154;23.002;2023-06-19T08:41:13;97274.91;;;26.74;53.81
36630;BME280;36256;42.154;23.002;2023-06-19T08:43:40;97265.94;;;26.57;53.10
36630;BME280;36256;42.154;23.002;2023-06-19T08:46:14;97272.31;;;26.63;54.37
36630;BME280;36256;42.154;23.002;2023-06-19T08:48:41;97269.44;;;26.63;54.41
36630;BME280;36256;42.154;23.002;2023-06-19T08:51:09;97272.47;;;26.78;55.67
36630;BME280;36256;42.154;23.002;2023-06-19T08:54:05;97263.66;;;26.63;52.72
36630;BME280;36256;42.154;23.002;2023-06-19T08:56:34;97254.47;;;26.64;51.68
36630;BME280;36256;42.154;23.002;2023-06-19T08:59:09;97258.75;;;26.71;52.56
36630;BME280;36256;42.154;23.002;2023-06-19T09:01:37;97256.88;;;26.73;50.86
36630;BME280;36256;42.154;23.002;2023-06-19T09:04:11;97254.78;;;26.74;49.77
36630;BME280;36256;42.154;23.002;2023-06-19T09:06:56;97247.31;;;26.58;50.40
36630;BME280;36256;42.154;23.002;2023-06-19T09:09:24;97255.66;;;26.69;51.33
36630;BME280;36256;42.154;23.002;2023-06-19T09:12:08;97255.78;;;26.84;52.32
36630;BME280;36256;42.154;23.002;2023-06-19T09:14:40;97251.88;;;27.02;51.92
36630;BME280;36256;42.154;23.002;2023-06-19T09:17:10;97252.81;;;26.97;51.10
36630;BME280;36256;42.154;23.002;2023-06-19T09:19:38;97253.78;;;26.99;52.38
36630;BME280;36256;42.154;23.002;2023-06-19T09:22:07;97249.56;;;27.00;50.65
36630;BME280;36256;42.154;23.002;2023-06-19T09:27:13;97259.25;;;27.46;49.62
36630;BME280;36256;42.154;23.002;2023-06-19T09:29:41;97247.31;;;27.42;50.75
36630;BME280;36256;42.154;23.002;2023-06-19T09:32:18;97249.66;;;27.51;50.68
36630;BME280;36256;42.154;23.002;2023-06-19T09:34:46;97244.69;;;27.52;47.27
36630;BME280;36256;42.154;23.002;2023-06-19T09:37:14;97240.06;;;27.56;50.99
36630;BME280;36256;42.154;23.002;2023-06-19T09:39:40;97221.63;;;27.59;44.63
36630;BME280;36256;42.154;23.002;2023-06-19T09:42:08;97225.50;;;27.62;42.42
36630;BME280;36256;42.154;23.002;2023-06-19T09:44:42;97229.75;;;27.68;44.77
36630;BME280;36256;42.154;23.002;2023-06-19T09:47:18;97219.00;;;27.76;43.83
36630;BME280;36256;42.154;23.002;2023-06-19T09:49:53;97212.88;;;27.87;45.80
36630;BME280;36256;42.154;23.002;2023-06-19T09:52:21;97215.81;;;28.03;42.77
36630;BME280;36256;42.154;23.002;2023-06-19T09:54:53;97216.78;;;28.13;44.67
36630;BME280;36256;42.154;23.002;2023-06-19T09:57:21;97201.41;;;28.10;51.02
36630;BME280;36256;42.154;23.002;2023-06-19T09:59:51;97201.00;;;28.06;48.25
36630;BME280;36256;42.154;23.002;2023-06-19T10:02:20;97223.69;;;28.10;47.43
36630;BME280;36256;42.154;23.002;2023-06-19T10:04:53;97209.50;;;28.27;45.26
36630;BME280;36256;42.154;23.002;2023-06-19T10:07:23;97207.97;;;28.26;40.80
36630;BME280;36256;42.154;23.002;2023-06-19T10:10:07;97195.63;;;28.18;43.15
36630;BME280;36256;42.154;23.002;2023-06-19T10:12:42;97188.13;;;28.00;41.37
36630;BME280;36256;42.154;23.002;2023-06-19T10:15:26;97186.19;;;28.02;45.95
36630;BME280;36256;42.154;23.002;2023-06-19T10:18:01;97178.72;;;28.07;45.44
36630;BME280;36256;42.154;23.002;2023-06-19T10:20:37;97170.63;;;28.05;39.33
36630;BME280;36256;42.154;23.002;2023-06-19T10:23:20;97162.16;;;28.00;41.96
36630;BME280;36256;42.154;23.002;2023-06-19T10:25:55;97194.06;;;28.09;45.00
36630;BME280;36256;42.154;23.002;2023-06-19T10:28:29;97200.84;;;28.19;47.96
36630;BME280;36256;42.154;23.002;2023-06-19T10:30:58;97199.09;;;28.31;44.56
36630;BME280;36256;42.154;23.002;2023-06-19T10:33:27;97207.75;;;28.39;48.35
36630;BME280;36256;42.154;23.002;2023-06-19T10:35:55;97208.72;;;28.41;44.24
36630;BME280;36256;42.154;23.002;2023-06-19T10:38:21;97191.41;;;28.26;44.02
36630;BME280;36256;42.154;23.002;2023-06-19T10:40:48;97187.94;;;28.28;43.33
36630;BME280;36256;42.154;23.002;2023-06-19T10:43:22;97186.03;;;28.23;43.21
36630;BME280;36256;42.154;23.002;2023-06-19T10:45:51;97173.72;;;28.15;45.83
36630;BME280;36256;42.154;23.002;2023-06-19T10:48:23;97159.47;;;28.02;41.48
36630;BME280;36256;42.154;23.002;2023-06-19T10:50:50;97166.22;;;28.19;41.03
36630;BME280;36256;42.154;23.002;2023-06-19T10:53:29;97157.16;;;28.08;42.58
36630;BME280;36256;42.154;23.002;2023-06-19T10:55:57;97159.47;;;28.17;43.86
36630;BME280;36256;42.154;23.002;2023-06-19T10:58:26;97169.47;;;28.16;40.86
36630;BME280;36256;42.154;23.002;2023-06-19T11:00:53;97170.66;;;28.28;41.76
36630;BME280;36256;42.154;23.002;2023-06-19T11:03:21;97173.91;;;28.32;44.60
36630;BME280;36256;42.154;23.002;2023-06-19T11:05:48;97160.63;;;28.21;42.14
36630;BME280;36256;42.154;23.002;2023-06-19T11:08:19;97159.28;;;28.22;43.31
36630;BME280;36256;42.154;23.002;2023-06-19T11:10:47;97151.78;;;28.12;41.22
36630;BME280;36256;42.154;23.002;2023-06-19T11:13:16;97161.19;;;28.20;43.63
36630;BME280;36256;42.154;23.002;2023-06-19T11:15:43;97157.75;;;28.21;43.69
36630;BME280;36256;42.154;23.002;2023-06-19T11:18:11;97168.91;;;28.25;44.03
36630;BME280;36256;42.154;23.002;2023-06-19T11:20:51;97164.06;;;28.35;42.07
36630;BME280;36256;42.154;23.002;2023-06-19T11:23:29;97146.78;;;28.12;45.01
36630;BME280;36256;42.154;23.002;2023-06-19T11:26:04;97156.78;;;28.34;42.41
36630;BME280;36256;42.154;23.002;2023-06-19T11:28:31;97132.16;;;28.25;40.43
36630;BME280;36256;42.154;23.002;2023-06-19T11:31:02;97144.44;;;28.41;43.15
36630;BME280;36256;42.154;23.002;2023-06-19T11:33:30;97129.63;;;28.37;43.40
36630;BME280;36256;42.154;23.002;2023-06-19T11:35:59;97133.31;;;28.37;40.16
36630;BME280;36256;42.154;23.002;2023-06-19T11:38:27;97155.22;;;28.48;45.35
36630;BME280;36256;42.154;23.002;2023-06-19T11:40:55;97162.53;;;28.64;47.99
36630;BME280;36256;42.154;23.002;2023-06-19T11:43:35;97152.91;;;28.54;43.20
36630;BME280;36256;42.154;23.002;2023-06-19T11:46:06;97142.91;;;28.47;41.65
36630;BME280;36256;42.154;23.002;2023-06-19T11:48:36;97145.03;;;28.47;41.54
36630;BME280;36256;42.154;23.002;2023-06-19T11:51:03;97150.19;;;28.56;44.84
36630;BME280;36256;42.154;23.002;2023-06-19T11:53:30;97162.16;;;28.60;44.45
36630;BME280;36256;42.154;23.002;2023-06-19T11:55:57;97159.47;;;28.47;43.35
36630;BME280;36256;42.154;23.002;2023-06-19T11:58:23;97138.66;;;28.41;42.13
36630;BME280;36256;42.154;23.002;2023-06-19T12:00:52;97140.97;;;28.50;41.39
36630;BME280;36256;42.154;23.002;2023-06-19T12:03:20;97132.34;;;28.57;42.86
36630;BME280;36256;42.154;23.002;2023-06-19T12:05:46;97147.88;;;28.77;43.19
36630;BME280;36256;42.154;23.002;2023-06-19T12:08:13;97129.81;;;28.69;40.11
36630;BME280;36256;42.154;23.002;2023-06-19T12:10:40;97141.38;;;28.61;41.44
36630;BME280;36256;42.154;23.002;2023-06-19T12:13:07;97118.84;;;28.52;38.65
36630;BME280;36256;42.154;23.002;2023-06-19T12:15:33;97131.56;;;28.57;44.34
36630;BME280;36256;42.154;23.002;2023-06-19T12:18:03;97114.06;;;28.40;38.59
36630;BME280;36256;42.154;23.002;2023-06-19T12:20:30;97124.44;;;28.43;45.03
36630;BME280;36256;42.154;23.002;2023-06-19T12:22:57;97139.44;;;28.49;43.70
36630;BME280;36256;42.154;23.002;2023-06-19T12:25:24;97124.66;;;28.30;41.75
36630;BME280;36256;42.154;23.002;2023-06-19T12:27:50;97128.13;;;28.36;43.01
36630;BME280;36256;42.154;23.002;2023-06-19T12:30:21;97129.81;;;28.39;42.69
36630;BME280;36256;42.154;23.002;2023-06-19T12:32:48;97120.97;;;28.37;39.03
36630;BME280;36256;42.154;23.002;2023-06-19T12:35:16;97111.00;;;28.23;38.28
36630;BME280;36256;42.154;23.002;2023-06-19T12:37:45;97123.88;;;28.37;45.77
36630;BME280;36256;42.154;23.002;2023-06-19T12:40:12;97111.75;;;28.46;45.48
36630;BME280;36256;42.154;23.002;2023-06-19T12:42:39;97121.38;;;28.48;42.84
36630;BME280;36256;42.154;23.002;2023-06-19T12:45:06;97119.44;;;28.51;42.57
36630;BME280;36256;42.154;23.002;2023-06-19T12:47:33;97111.75;;;28.31;38.92
36630;BME280;36256;42.154;23.002;2023-06-19T12:49:59;97107.91;;;28.36;41.49
36630;BME280;36256;42.154;23.002;2023-06-19T12:52:26;97115.03;;;28.27;40.94
36630;BME280;36256;42.154;23.002;2023-06-19T12:54:53;97116.75;;;28.38;45.44
36630;BME280;36256;42.154;23.002;2023-06-19T12:57:20;97120.59;;;28.48;44.27